Time;durP1;ratioP1;P1;durP2;ratioP2;P2;SDS_P1;SDS_P2;PMS_P1;PMS_P2;Temp;Humidity;BMP_temperature;BMP_pressure;BME280_temperature;BME280_humidity;BME280_pressure;Samples;Min_cycle;Max_cycle;Signal;HPM_P1;HPM_P2
2023/11/21 00:01:04;;;;;;;5.23;3.73;;;12.20;99.90;;;;;;5000682;28;20507;-41
2023/11/21 00:03:32;;;;;;;5.17;3.80;;;12.20;99.90;;;;;;5037749;28;20492;-40
2023/11/21 00:05:58;;;;;;;4.40;3.70;;;12.20;99.90;;;;;;5017378;28;20440;-41
2023/11/21 00:08:24;;;;;;;5.60;3.90;;;12.20;99.90;;;;;;5001490;28;20452;-40
2023/11/21 00:10:51;;;;;;;3.63;3.30;;;12.10;99.90;;;;;;5014443;28;20831;-38
2023/11/21 00:13:19;;;;;;;3.97;3.57;;;12.10;99.90;;;;;;5014635;28;20453;-36
2023/11/21 00:15:46;;;;;;;4.60;4.10;;;12.10;99.90;;;;;;5028141;28;21056;-42
2023/11/21 00:18:13;;;;;;;3.70;3.23;;;12.10;99.90;;;;;;5038021;28;20970;-41
2023/11/21 00:20:40;;;;;;;4.47;3.60;;;12.10;99.90;;;;;;5013271;28;20952;-39
2023/11/21 00:23:09;;;;;;;5.30;3.47;;;12.10;99.90;;;;;;5034775;28;20448;-41
2023/11/21 00:25:38;;;;;;;6.73;3.90;;;12.10;99.90;;;;;;5025607;28;20564;-41
2023/11/21 00:28:06;;;;;;;5.93;3.30;;;12.10;99.90;;;;;;5018703;28;20451;-40
2023/11/21 00:30:32;;;;;;;6.10;3.60;;;12.10;99.90;;;;;;5033129;28;20550;-41
2023/11/21 00:33:01;;;;;;;4.30;3.40;;;12.10;99.90;;;;;;5000805;28;20485;-39
2023/11/21 00:35:27;;;;;;;4.57;3.17;;;12.10;99.90;;;;;;4994951;28;20444;-41
2023/11/21 00:37:53;;;;;;;5.57;3.33;;;12.10;99.90;;;;;;5013524;28;20421;-40
2023/11/21 00:40:22;;;;;;;5.60;3.85;;;12.10;99.90;;;;;;5036384;28;21061;-41
2023/11/21 00:42:48;;;;;;;5.60;3.53;;;12.10;99.90;;;;;;5006308;28;20199;-39
2023/11/21 00:45:14;;;;;;;5.40;3.40;;;12.10;99.90;;;;;;5022050;28;20411;-39
2023/11/21 00:47:40;;;;;;;8.18;3.63;;;12.10;99.90;;;;;;5022200;28;20471;-42
2023/11/21 00:50:07;;;;;;;4.23;3.27;;;12.10;99.90;;;;;;5021489;28;20189;-38
2023/11/21 00:52:33;;;;;;;4.47;3.90;;;12.10;99.90;;;;;;5018529;28;20461;-40
2023/11/21 00:55:00;;;;;;;4.70;3.55;;;12.10;99.90;;;;;;5036849;28;20455;-39
2023/11/21 00:57:26;;;;;;;3.92;3.30;;;12.10;99.90;;;;;;5005092;28;20624;-40
2023/11/21 00:59:55;;;;;;;7.70;3.60;;;12.20;99.90;;;;;;5040225;28;20994;-41
2023/11/21 01:02:23;;;;;;;4.20;3.80;;;12.20;99.90;;;;;;5005948;28;20511;-41
2023/11/21 01:04:51;;;;;;;4.90;3.40;;;12.20;99.90;;;;;;5035919;28;20461;-39
2023/11/21 01:07:21;;;;;;;6.23;4.00;;;12.10;99.90;;;;;;5022059;28;20456;-38
2023/11/21 01:09:49;;;;;;;7.63;3.70;;;12.10;99.90;;;;;;5035800;28;20431;-40
2023/11/21 01:12:17;;;;;;;4.60;3.47;;;12.10;99.90;;;;;;5005824;28;20515;-41
2023/11/21 01:14:45;;;;;;;3.88;3.47;;;12.10;99.90;;;;;;5022123;28;20996;-42
2023/11/21 01:17:12;;;;;;;4.90;3.83;;;12.00;99.90;;;;;;5021681;28;20289;-41
2023/11/21 01:19:41;;;;;;;3.73;3.43;;;12.10;99.90;;;;;;4997254;28;20450;-40
2023/11/21 01:22:07;;;;;;;4.07;3.30;;;12.10;99.90;;;;;;5022236;28;21432;-39
2023/11/21 01:24:33;;;;;;;6.50;4.00;;;12.10;99.90;;;;;;5013486;28;20273;-41
2023/11/21 01:26:59;;;;;;;4.30;3.50;;;12.10;99.90;;;;;;5016808;28;20454;-39
2023/11/21 01:29:27;;;;;;;8.10;3.85;;;12.10;99.90;;;;;;5021022;28;20457;-40
2023/11/21 01:31:57;;;;;;;5.00;3.70;;;12.10;99.90;;;;;;5011315;28;21001;-41
2023/11/21 01:34:23;;;;;;;5.53;3.50;;;12.10;99.90;;;;;;5038262;28;20529;-39
2023/11/21 01:36:49;;;;;;;4.10;3.67;;;12.10;99.90;;;;;;5020130;28;20263;-37
2023/11/21 01:39:16;;;;;;;4.13;3.73;;;12.10;99.90;;;;;;5037883;28;20462;-36
2023/11/21 01:41:44;;;;;;;5.23;3.40;;;12.10;99.90;;;;;;5020105;28;20484;-40
2023/11/21 01:44:13;;;;;;;5.07;4.07;;;12.00;99.90;;;;;;5025721;28;20431;-36
2023/11/21 01:46:41;;;;;;;4.87;3.27;;;12.00;99.90;;;;;;5100361;22;20509;-26
2023/11/21 01:49:09;;;;;;;4.53;3.40;;;12.00;99.90;;;;;;4981708;28;20466;-28
2023/11/21 01:51:37;;;;;;;3.20;2.90;;;12.00;99.90;;;;;;4999468;28;20431;-26
2023/11/21 01:54:04;;;;;;;3.80;3.40;;;11.90;99.90;;;;;;5001170;28;20559;-27
2023/11/21 01:56:31;;;;;;;6.50;3.80;;;12.00;99.90;;;;;;5007856;28;20420;-27
2023/11/21 01:58:57;;;;;;;5.40;3.40;;;11.90;99.90;;;;;;4947457;28;20769;-28
2023/11/21 02:01:26;;;;;;;3.57;3.27;;;11.90;99.90;;;;;;5019328;28;20921;-27
2023/11/21 02:03:55;;;;;;;6.47;3.77;;;11.90;99.90;;;;;;4999281;28;21049;-28
2023/11/21 02:06:22;;;;;;;8.03;3.73;;;11.90;99.90;;;;;;5006974;28;20444;-27
2023/11/21 02:08:48;;;;;;;4.63;4.00;;;11.90;99.90;;;;;;4991988;28;20988;-28
2023/11/21 02:11:21;;;;;;;3.87;3.50;;;11.90;99.90;;;;;;4992736;28;21044;-28
2023/11/21 02:13:49;;;;;;;3.93;3.57;;;11.90;99.90;;;;;;4986901;28;20513;-26
2023/11/21 02:16:17;;;;;;;6.43;3.60;;;11.80;99.90;;;;;;5005901;28;20438;-29
2023/11/21 02:18:43;;;;;;;3.90;3.60;;;11.80;99.90;;;;;;5004279;28;20447;-27
2023/11/21 02:21:10;;;;;;;4.13;3.67;;;11.80;99.90;;;;;;4997762;28;20471;-26
2023/11/21 02:23:42;;;;;;;3.92;3.60;;;11.80;99.90;;;;;;5016438;28;21072;-28
2023/11/21 02:26:09;;;;;;;6.53;4.07;;;11.90;99.90;;;;;;5009468;28;20901;-28
2023/11/21 02:28:38;;;;;;;4.73;3.03;;;11.90;99.90;;;;;;4989063;28;20439;-29
2023/11/21 02:31:05;;;;;;;5.70;3.80;;;11.90;99.90;;;;;;4977590;28;20445;-27
2023/11/21 02:33:35;;;;;;;4.20;3.60;;;11.90;99.90;;;;;;5001839;28;20520;-28
2023/11/21 02:36:02;;;;;;;5.05;3.58;;;11.90;99.90;;;;;;4997328;28;20191;-28
2023/11/21 02:38:28;;;;;;;6.45;3.80;;;11.90;99.90;;;;;;4997371;28;20212;-27
2023/11/21 02:40:55;;;;;;;3.80;3.40;;;12.00;99.90;;;;;;4991025;28;20218;-27
2023/11/21 02:43:24;;;;;;;5.87;3.63;;;12.00;99.90;;;;;;4988809;28;20464;-27
2023/11/21 02:45:50;;;;;;;8.43;4.10;;;12.00;99.90;;;;;;4994179;28;20415;-27
2023/11/21 02:48:16;;;;;;;3.60;3.30;;;12.00;99.90;;;;;;4990807;28;20272;-27
2023/11/21 02:50:43;;;;;;;5.47;3.45;;;12.00;99.90;;;;;;4975911;28;20424;-27
2023/11/21 02:53:10;;;;;;;4.80;3.87;;;11.90;99.90;;;;;;4985668;28;20212;-28
2023/11/21 02:55:37;;;;;;;4.30;3.57;;;12.00;99.90;;;;;;4989943;28;20466;-27
2023/11/21 02:58:06;;;;;;;5.03;3.72;;;12.00;99.90;;;;;;4988786;28;20436;-26
2023/11/21 03:00:32;;;;;;;5.30;3.50;;;11.90;99.90;;;;;;4993256;28;20252;-27
2023/11/21 03:03:00;;;;;;;5.77;3.53;;;11.90;99.90;;;;;;4997807;28;21418;-29
2023/11/21 03:05:26;;;;;;;4.10;3.70;;;11.90;99.90;;;;;;5002358;28;20433;-27
2023/11/21 03:07:56;;;;;;;4.07;3.40;;;11.90;99.90;;;;;;5006317;28;20424;-28
2023/11/21 03:10:25;;;;;;;3.83;3.40;;;11.80;99.90;;;;;;4997399;28;20459;-27
2023/11/21 03:12:51;;;;;;;8.80;4.00;;;11.80;99.90;;;;;;4981136;28;20466;-28
2023/11/21 03:15:17;;;;;;;6.00;3.50;;;11.80;99.90;;;;;;5009084;28;20493;-27
2023/11/21 03:17:43;;;;;;;5.30;3.70;;;11.80;99.90;;;;;;4990736;28;20469;-27
2023/11/21 03:20:10;;;;;;;4.30;3.90;;;11.80;99.90;;;;;;4991291;28;20652;-26
2023/11/21 03:22:38;;;;;;;5.45;3.67;;;11.80;99.90;;;;;;4984860;28;20460;-27
2023/11/21 03:25:05;;;;;;;3.60;3.30;;;11.80;99.90;;;;;;4997823;28;20196;-27
2023/11/21 03:27:31;;;;;;;5.87;3.67;;;11.80;99.90;;;;;;4996062;28;20196;-28
2023/11/21 03:29:57;;;;;;;4.43;3.60;;;11.80;99.90;;;;;;5005529;28;20422;-27
2023/11/21 03:32:23;;;;;;;3.70;3.10;;;11.90;99.90;;;;;;4992534;28;20443;-27
2023/11/21 03:34:57;;;;;;;7.53;3.97;;;11.80;99.90;;;;;;4968376;28;20431;-27
2023/11/21 03:37:24;;;;;;;6.13;3.67;;;11.80;99.90;;;;;;4976224;28;21105;-28
2023/11/21 03:39:50;;;;;;;4.30;3.90;;;11.80;99.90;;;;;;4985018;28;20459;-29
2023/11/21 03:42:16;;;;;;;4.70;3.47;;;11.80;99.90;;;;;;5012625;28;20217;-27
2023/11/21 03:44:44;;;;;;;6.20;3.90;;;11.80;99.90;;;;;;5010485;28;20445;-27
2023/11/21 03:47:13;;;;;;;4.20;3.40;;;11.80;99.90;;;;;;4974107;28;20451;-27
2023/11/21 03:49:40;;;;;;;5.07;4.37;;;11.80;99.90;;;;;;4969230;28;20519;-28
2023/11/21 03:52:07;;;;;;;4.10;3.70;;;11.80;99.90;;;;;;4968986;28;20526;-28
2023/11/21 03:54:34;;;;;;;7.57;4.27;;;11.80;99.90;;;;;;4976229;28;20636;-27
2023/11/21 03:57:00;;;;;;;4.50;3.70;;;11.80;99.90;;;;;;5014730;28;20545;-28
2023/11/21 03:59:26;;;;;;;8.43;4.00;;;11.80;99.90;;;;;;5002973;28;21440;-29
2023/11/21 04:01:54;;;;;;;5.93;4.03;;;11.70;99.90;;;;;;5008274;28;20526;-27
2023/11/21 04:04:20;;;;;;;5.27;4.20;;;11.70;99.90;;;;;;4985280;28;20424;-28
2023/11/21 04:06:46;;;;;;;5.07;4.40;;;11.70;99.90;;;;;;5001918;28;20416;-28
2023/11/21 04:09:16;;;;;;;4.73;3.80;;;11.70;99.90;;;;;;5001761;28;20187;-27
2023/11/21 04:11:42;;;;;;;3.80;3.50;;;11.70;99.90;;;;;;4987540;28;20438;-27
2023/11/21 04:14:09;;;;;;;5.00;3.90;;;11.70;99.90;;;;;;4988374;28;20445;-28
2023/11/21 04:16:35;;;;;;;4.32;3.80;;;11.70;99.90;;;;;;5001914;28;20471;-28
2023/11/21 04:19:03;;;;;;;4.07;3.73;;;11.70;99.90;;;;;;5002793;28;20481;-27
2023/11/21 04:21:29;;;;;;;4.90;3.60;;;11.70;99.90;;;;;;4969008;28;20469;-29
2023/11/21 04:23:59;;;;;;;5.77;3.83;;;11.70;99.90;;;;;;5005887;28;20650;-29
2023/11/21 04:26:25;;;;;;;5.33;4.23;;;11.70;99.90;;;;;;4968230;28;20436;-28
2023/11/21 04:28:54;;;;;;;3.80;3.50;;;11.70;99.90;;;;;;4975180;28;21000;-28
2023/11/21 04:31:20;;;;;;;5.13;4.55;;;11.70;99.90;;;;;;5001687;28;20461;-28
2023/11/21 04:33:49;;;;;;;6.32;3.80;;;11.70;99.90;;;;;;4986544;28;20268;-27
2023/11/21 04:36:16;;;;;;;3.87;3.47;;;11.70;99.90;;;;;;5019785;28;20895;-28
2023/11/21 04:38:42;;;;;;;4.15;3.75;;;11.80;99.90;;;;;;5002058;28;20427;-27
2023/11/21 04:41:11;;;;;;;4.47;3.63;;;11.80;99.90;;;;;;5002700;28;20212;-26
2023/11/21 04:43:37;;;;;;;7.10;3.90;;;11.80;99.90;;;;;;4989408;28;20661;-28
2023/11/21 04:46:03;;;;;;;4.83;3.40;;;11.80;99.90;;;;;;5008515;28;20955;-28
2023/11/21 04:48:33;;;;;;;7.83;4.00;;;11.80;99.90;;;;;;5011012;28;21024;-29
2023/11/21 04:50:59;;;;;;;5.63;3.40;;;11.80;99.90;;;;;;5010912;28;21185;-28
2023/11/21 04:53:28;;;;;;;8.80;3.80;;;11.80;99.90;;;;;;5014272;28;20561;-28
2023/11/21 04:55:58;;;;;;;5.07;4.30;;;11.70;99.90;;;;;;5012930;28;20493;-27
2023/11/21 04:58:24;;;;;;;4.00;3.40;;;11.70;99.90;;;;;;5002659;28;20509;-27
2023/11/21 05:00:51;;;;;;;9.33;4.03;;;11.70;99.90;;;;;;5005423;28;20544;-28
2023/11/21 05:03:16;;;;;;;6.43;3.83;;;11.60;99.90;;;;;;4987840;28;20451;-27
2023/11/21 05:05:42;;;;;;;5.80;4.17;;;11.60;99.90;;;;;;5002536;28;21010;-27
2023/11/21 05:08:08;;;;;;;4.57;3.93;;;11.60;99.90;;;;;;4978856;28;20430;-28
2023/11/21 05:10:40;;;;;;;5.63;3.90;;;11.60;99.90;;;;;;5000481;28;20459;-29
2023/11/21 05:13:10;;;;;;;4.00;3.63;;;11.60;99.90;;;;;;5008574;28;20544;-27
2023/11/21 05:15:37;;;;;;;4.60;4.20;;;11.60;99.90;;;;;;5004831;28;20483;-26
2023/11/21 05:18:05;;;;;;;4.67;4.10;;;11.60;99.90;;;;;;5007797;28;20466;-28
2023/11/21 05:20:35;;;;;;;4.87;4.23;;;11.60;99.90;;;;;;4993468;28;21041;-29
2023/11/21 05:23:05;;;;;;;5.20;3.97;;;11.60;99.90;;;;;;5007645;28;20440;-28
2023/11/21 05:25:32;;;;;;;6.27;4.10;;;11.60;99.90;;;;;;4999775;28;20435;-27
2023/11/21 05:28:01;;;;;;;5.83;4.20;;;11.60;99.90;;;;;;4994382;28;20428;-27
2023/11/21 05:30:27;;;;;;;4.67;4.03;;;11.60;99.90;;;;;;5000017;28;21474;-27
2023/11/21 05:32:57;;;;;;;4.67;3.73;;;11.60;99.90;;;;;;4981971;28;20508;-27
2023/11/21 05:35:26;;;;;;;6.57;4.33;;;11.60;99.90;;;;;;4999539;28;20445;-27
2023/11/21 05:37:56;;;;;;;5.57;4.20;;;11.60;99.90;;;;;;5000384;28;20420;-26
2023/11/21 05:40:22;;;;;;;4.30;3.90;;;11.60;99.90;;;;;;5007926;28;20446;-26
2023/11/21 05:42:51;;;;;;;5.50;4.63;;;11.60;99.90;;;;;;5018512;28;20454;-28
2023/11/21 05:45:18;;;;;;;7.00;3.77;;;11.60;99.90;;;;;;4986778;28;20422;-28
2023/11/21 05:47:48;;;;;;;6.80;4.57;;;11.50;99.90;;;;;;5003522;28;20501;-29
2023/11/21 05:50:18;;;;;;;5.30;4.40;;;11.50;99.90;;;;;;5004126;28;20967;-30
2023/11/21 05:52:45;;;;;;;4.43;4.03;;;11.60;99.90;;;;;;4994225;28;20513;-29
2023/11/21 05:55:12;;;;;;;8.03;4.30;;;11.50;99.90;;;;;;5017152;28;20432;-28
2023/11/21 05:57:39;;;;;;;6.32;4.38;;;11.50;99.90;;;;;;5014926;28;20966;-28
2023/11/21 06:00:18;;;;;;;5.50;4.47;;;11.60;99.90;;;;;;5002783;28;20264;-29
2023/11/21 06:02:46;;;;;;;4.40;4.00;;;11.60;99.90;;;;;;5015171;28;20458;-28
2023/11/21 06:05:13;;;;;;;10.60;4.80;;;11.60;99.90;;;;;;4986241;28;21015;-28
2023/11/21 06:07:39;;;;;;;4.93;4.47;;;11.60;99.90;;;;;;5009361;28;20443;-29
2023/11/21 06:10:11;;;;;;;4.53;3.97;;;11.60;99.90;;;;;;4988505;28;20446;-28
2023/11/21 06:12:40;;;;;;;4.90;4.50;;;11.60;99.90;;;;;;5007861;28;21067;-29
2023/11/21 06:15:08;;;;;;;4.90;4.40;;;11.60;99.90;;;;;;5002943;28;20999;-28
2023/11/21 06:17:37;;;;;;;4.37;3.97;;;11.50;99.90;;;;;;4990478;28;20472;-28
2023/11/21 06:20:09;;;;;;;6.70;4.47;;;11.50;99.90;;;;;;5019011;28;20531;-29
2023/11/21 06:22:39;;;;;;;5.67;4.33;;;11.60;99.90;;;;;;4995922;28;20436;-29
2023/11/21 06:25:08;;;;;;;5.60;4.20;;;11.50;99.90;;;;;;4985727;28;20933;-28
2023/11/21 06:27:41;;;;;;;4.10;3.67;;;11.50;99.90;;;;;;5002769;28;21174;-29
2023/11/21 06:30:09;;;;;;;4.30;3.90;;;11.50;99.90;;;;;;4989521;28;21425;-29
2023/11/21 06:32:36;;;;;;;5.20;4.50;;;11.50;99.90;;;;;;5018575;28;20940;-28
2023/11/21 06:35:05;;;;;;;9.00;4.93;;;11.50;99.90;;;;;;4988737;28;21014;-28
2023/11/21 06:37:32;;;;;;;5.93;4.80;;;11.50;99.90;;;;;;5003525;28;20420;-29
2023/11/21 06:39:59;;;;;;;6.00;4.47;;;11.50;99.90;;;;;;5002717;28;20429;-27
2023/11/21 06:42:29;;;;;;;4.03;3.67;;;11.60;99.90;;;;;;5015034;28;20478;-28
2023/11/21 06:44:57;;;;;;;5.20;4.53;;;11.60;99.90;;;;;;4985441;28;20430;-28
2023/11/21 06:47:29;;;;;;;5.47;4.67;;;11.60;99.90;;;;;;4988488;28;20520;-27
2023/11/21 06:49:55;;;;;;;5.50;4.80;;;11.50;99.90;;;;;;4984185;28;21019;-29
2023/11/21 06:52:21;;;;;;;8.23;5.20;;;11.50;99.90;;;;;;5002023;28;20440;-28
2023/11/21 06:54:49;;;;;;;5.23;4.53;;;11.50;99.90;;;;;;5001987;28;20605;-27
2023/11/21 06:57:15;;;;;;;7.53;5.57;;;11.50;99.90;;;;;;4975692;28;20417;-29
2023/11/21 06:59:41;;;;;;;7.20;6.10;;;11.50;99.90;;;;;;4972066;28;20213;-30
2023/11/21 07:02:09;;;;;;;7.83;5.80;;;11.60;99.90;;;;;;5002269;28;20548;-28
2023/11/21 07:04:36;;;;;;;9.77;6.13;;;11.60;99.90;;;;;;5005653;28;20852;-28
2023/11/21 07:07:06;;;;;;;7.38;5.95;;;11.50;99.90;;;;;;4973298;28;20483;-28
2023/11/21 07:09:33;;;;;;;7.90;5.82;;;11.50;99.90;;;;;;4995131;28;20185;-30
2023/11/21 07:12:07;;;;;;;6.33;5.33;;;11.60;99.90;;;;;;5006274;28;20585;-29
2023/11/21 07:14:36;;;;;;;8.83;5.90;;;11.60;99.90;;;;;;4990279;28;20414;-29
2023/11/21 07:17:06;;;;;;;9.67;5.93;;;11.60;99.90;;;;;;5006236;28;20430;-29
2023/11/21 07:19:32;;;;;;;7.43;6.07;;;11.60;99.90;;;;;;5004643;28;20828;-28
2023/11/21 07:21:58;;;;;;;9.20;6.33;;;11.60;99.90;;;;;;5000288;28;20520;-29
2023/11/21 07:24:24;;;;;;;9.93;6.07;;;11.60;99.90;;;;;;5006146;28;20830;-28
2023/11/21 07:26:56;;;;;;;8.45;6.53;;;11.50;99.90;;;;;;4986118;28;20552;-29
2023/11/21 07:29:26;;;;;;;9.77;6.57;;;11.60;99.90;;;;;;5006851;28;20907;-29
2023/11/21 07:31:56;;;;;;;7.83;6.13;;;11.60;99.90;;;;;;5000454;28;20431;-28
2023/11/21 07:34:22;;;;;;;10.30;7.00;;;11.60;99.90;;;;;;5000261;28;20429;-28
2023/11/21 07:36:48;;;;;;;10.30;7.10;;;11.60;99.90;;;;;;4982212;28;20438;-29
2023/11/21 07:39:16;;;;;;;8.10;6.47;;;11.60;99.90;;;;;;5005855;28;20953;-27
2023/11/21 07:41:48;;;;;;;7.70;5.97;;;11.50;99.90;;;;;;5007502;28;20484;-28
2023/11/21 07:44:16;;;;;;;11.37;7.17;;;11.50;99.90;;;;;;5002361;28;20439;-29
2023/11/21 07:46:42;;;;;;;10.13;7.33;;;11.50;99.90;;;;;;4987529;28;20876;-28
2023/11/21 07:49:09;;;;;;;10.38;7.00;;;11.50;99.90;;;;;;5006725;28;20423;-29
2023/11/21 07:51:37;;;;;;;17.63;8.25;;;11.50;99.90;;;;;;5004369;28;20248;-28
2023/11/21 07:54:03;;;;;;;10.83;7.43;;;11.60;99.90;;;;;;4986829;28;20779;-29
2023/11/21 07:56:29;;;;;;;14.20;7.53;;;11.60;99.90;;;;;;4983294;28;20467;-29
2023/11/21 07:58:57;;;;;;;14.07;9.03;;;11.60;99.90;;;;;;4985751;28;20452;-27
2023/11/21 08:01:23;;;;;;;11.90;8.10;;;11.60;99.90;;;;;;4988087;28;20573;-27
2023/11/21 08:03:52;;;;;;;15.17;8.10;;;11.60;99.90;;;;;;4988157;28;20588;-29
2023/11/21 08:06:21;;;;;;;9.70;7.37;;;11.50;99.90;;;;;;4972249;28;20592;-29
2023/11/21 08:08:49;;;;;;;13.10;8.63;;;11.50;99.90;;;;;;5011158;28;20958;-28
2023/11/21 08:11:16;;;;;;;14.53;7.73;;;11.50;99.90;;;;;;5008842;28;20935;-28
2023/11/21 08:13:45;;;;;;;12.93;7.88;;;11.50;99.90;;;;;;5008746;28;20464;-28
2023/11/21 08:16:14;;;;;;;12.80;8.70;;;11.50;99.90;;;;;;4980673;28;20434;-28
2023/11/21 08:18:41;;;;;;;12.85;8.15;;;11.50;99.90;;;;;;5008542;28;20432;-27
2023/11/21 08:21:12;;;;;;;12.68;7.68;;;11.60;99.90;;;;;;4988280;28;20307;-29
2023/11/21 08:23:38;;;;;;;12.07;7.80;;;11.60;99.90;;;;;;5005514;28;20205;-27
2023/11/21 08:26:09;;;;;;;16.83;7.87;;;11.70;99.90;;;;;;5011814;28;20477;-26
2023/11/21 08:28:42;;;;;;;16.60;10.33;;;11.60;99.90;;;;;;4970785;28;20455;-27
2023/11/21 08:31:10;;;;;;;19.67;10.60;;;11.60;99.90;;;;;;5000324;28;20414;-27
2023/11/21 08:33:39;;;;;;;12.07;8.60;;;11.60;99.90;;;;;;5006393;28;20264;-27
2023/11/21 08:36:08;;;;;;;15.97;9.27;;;11.60;99.90;;;;;;5014639;28;20837;-28
2023/11/21 08:38:40;;;;;;;14.90;9.60;;;11.60;99.90;;;;;;5011582;28;20446;-28
2023/11/21 08:41:07;;;;;;;13.77;9.27;;;11.60;99.90;;;;;;5010956;28;20524;-28
2023/11/21 08:43:35;;;;;;;10.97;8.17;;;11.60;99.90;;;;;;5002223;28;20501;-26
2023/11/21 08:46:03;;;;;;;16.17;8.10;;;11.60;99.90;;;;;;4982272;28;20452;-28
2023/11/21 08:48:29;;;;;;;11.33;7.80;;;11.60;99.90;;;;;;4993149;28;20428;-28
2023/11/21 08:50:58;;;;;;;11.80;8.50;;;11.60;99.90;;;;;;5010705;28;20440;-27
2023/11/21 08:53:27;;;;;;;13.13;8.43;;;11.60;99.90;;;;;;5009976;28;20455;-28
2023/11/21 08:55:54;;;;;;;12.35;8.55;;;11.60;99.90;;;;;;5011432;28;20214;-26
2023/11/21 08:58:19;;;;;;;16.20;8.30;;;11.60;99.90;;;;;;4987884;28;20190;-28
2023/11/21 09:00:46;;;;;;;16.00;8.60;;;11.70;99.90;;;;;;4987838;28;20478;-26
2023/11/21 09:03:15;;;;;;;14.17;8.40;;;11.70;99.90;;;;;;4994184;28;20531;-28
2023/11/21 09:05:44;;;;;;;11.10;8.47;;;11.60;99.90;;;;;;5011721;28;20439;-28
2023/11/21 09:08:10;;;;;;;13.97;9.30;;;11.60;99.90;;;;;;5003565;28;20417;-27
2023/11/21 09:10:36;;;;;;;14.07;8.60;;;11.60;99.90;;;;;;5014401;28;20798;-26
2023/11/21 09:13:03;;;;;;;17.23;8.60;;;11.60;99.90;;;;;;4985615;28;20470;-28
2023/11/21 09:15:29;;;;;;;16.87;9.17;;;11.60;99.90;;;;;;4987976;28;21210;-28
2023/11/21 09:17:56;;;;;;;13.87;8.10;;;11.50;99.90;;;;;;4972167;28;20955;-27
2023/11/21 09:20:22;;;;;;;16.20;9.70;;;11.50;99.90;;;;;;5013252;28;20430;-29
2023/11/21 09:22:50;;;;;;;14.20;8.77;;;11.50;99.90;;;;;;4988683;28;20534;-27
2023/11/21 09:25:16;;;;;;;14.97;9.50;;;11.50;99.90;;;;;;4992179;28;20467;-28
2023/11/21 09:27:42;;;;;;;15.57;10.37;;;11.50;99.90;;;;;;4976941;28;20599;-28
2023/11/21 09:30:10;;;;;;;13.10;8.60;;;11.50;99.90;;;;;;4987341;28;21143;-27
2023/11/21 09:32:45;;;;;;;16.70;9.68;;;11.60;99.90;;;;;;4984150;28;20213;-27
2023/11/21 09:35:11;;;;;;;15.43;10.33;;;11.60;99.90;;;;;;5017984;28;20193;-26
2023/11/21 09:37:37;;;;;;;16.97;9.90;;;11.60;99.90;;;;;;4995760;28;20565;-26
2023/11/21 09:40:12;;;;;;;13.10;8.27;;;11.60;99.90;;;;;;5002924;28;20473;-27
2023/11/21 09:43:07;;;;;;;16.02;8.73;;;11.60;99.90;;;;;;5009926;28;20989;-27
2023/11/21 09:45:38;;;;;;;14.30;8.93;;;11.60;99.90;;;;;;5008069;28;20729;-26
2023/11/21 09:48:06;;;;;;;11.90;8.63;;;11.60;99.90;;;;;;5017821;28;20549;-26
2023/11/21 09:50:33;;;;;;;17.40;10.43;;;11.60;99.90;;;;;;4992553;28;20437;-27
2023/11/21 09:53:20;;;;;;;15.10;9.90;;;11.60;99.90;;;;;;4995928;28;20898;-27
2023/11/21 09:55:52;;;;;;;14.67;9.03;;;11.60;99.90;;;;;;5095488;23;20503;-30
2023/11/21 09:58:19;;;;;;;12.90;9.07;;;11.60;99.90;;;;;;5082202;28;20464;-36
2023/11/21 10:00:58;;;;;;;13.32;9.95;;;11.60;99.90;;;;;;5083473;28;20503;-30
2023/11/21 10:03:24;;;;;;;14.00;9.50;;;11.60;99.90;;;;;;5049112;28;20263;-29
2023/11/21 10:05:56;;;;;;;14.03;9.63;;;11.60;99.90;;;;;;5028537;28;20435;-28
2023/11/21 10:08:28;;;;;;;17.60;10.50;;;11.60;99.90;;;;;;5043896;28;20422;-29
2023/11/21 10:10:56;;;;;;;16.07;10.10;;;11.60;99.90;;;;;;5060904;28;20926;-29
2023/11/21 10:13:31;;;;;;;14.00;9.30;;;11.60;99.90;;;;;;5038396;28;20948;-27
2023/11/21 10:15:57;;;;;;;16.90;10.00;;;11.60;99.90;;;;;;5033697;28;20452;-31
2023/11/21 10:18:25;;;;;;;15.10;9.50;;;11.60;99.90;;;;;;5060270;28;20423;-31
2023/11/21 10:20:53;;;;;;;26.02;9.93;;;11.60;99.90;;;;;;5041904;28;20464;-30
2023/11/21 10:23:20;;;;;;;16.40;11.03;;;11.60;99.90;;;;;;5041563;28;20464;-28
2023/11/21 10:25:47;;;;;;;19.43;11.43;;;11.60;99.90;;;;;;5037443;28;20971;-30
2023/11/21 10:28:16;;;;;;;20.20;11.27;;;11.60;99.90;;;;;;5061962;28;20507;-29
2023/11/21 10:30:44;;;;;;;13.20;9.70;;;11.60;99.90;;;;;;5038877;28;20522;-31
2023/11/21 10:33:11;;;;;;;19.17;11.27;;;11.60;99.90;;;;;;5061615;28;20491;-28
2023/11/21 10:35:50;;;;;;;16.03;10.60;;;11.60;99.90;;;;;;5060700;28;21033;-31
2023/11/21 10:38:23;;;;;;;15.07;9.90;;;11.60;99.90;;;;;;5059281;28;21273;-32
2023/11/21 10:40:49;;;;;;;19.80;11.87;;;11.60;99.90;;;;;;5040662;28;20458;-32
2023/11/21 10:43:18;;;;;;;15.60;9.83;;;11.60;99.90;;;;;;5040946;28;20449;-34
2023/11/21 10:45:47;;;;;;;17.77;10.37;;;11.60;99.90;;;;;;5059443;28;20431;-30
2023/11/21 10:48:17;;;;;;;19.23;10.73;;;11.60;99.90;;;;;;5059180;28;20421;-33
2023/11/21 10:50:47;;;;;;;17.40;10.00;;;11.60;99.90;;;;;;5059699;28;20554;-35
2023/11/21 10:53:13;;;;;;;22.23;12.63;;;11.60;99.90;;;;;;5059443;28;20448;-30
2023/11/21 10:55:39;;;;;;;17.63;11.18;;;11.60;99.90;;;;;;5059557;28;20457;-31
2023/11/21 10:58:06;;;;;;;17.27;11.67;;;11.60;99.90;;;;;;5060099;28;20185;-31
2023/11/21 11:00:33;;;;;;;19.70;11.70;;;11.60;99.90;;;;;;5037304;28;20435;-32
2023/11/21 11:03:00;;;;;;;23.30;11.53;;;11.70;99.90;;;;;;5042457;28;20474;-33
2023/11/21 11:05:32;;;;;;;21.88;10.90;;;11.70;99.90;;;;;;5039391;28;20426;-31
2023/11/21 11:08:10;;;;;;;19.92;11.88;;;11.70;99.90;;;;;;5055691;28;20278;-28
2023/11/21 11:10:37;;;;;;;18.58;11.70;;;11.70;99.90;;;;;;5022094;28;20802;-31
2023/11/21 11:13:04;;;;;;;19.77;12.18;;;11.80;99.90;;;;;;5060254;28;20312;-32
2023/11/21 11:15:30;;;;;;;17.97;9.97;;;11.90;99.90;;;;;;5062565;28;20183;-29
2023/11/21 11:18:03;;;;;;;15.00;10.57;;;11.90;99.90;;;;;;5025570;28;20468;-34
2023/11/21 11:20:39;;;;;;;15.20;10.20;;;11.90;99.90;;;;;;5056403;28;20976;-28
2023/11/21 11:23:26;;;;;;;18.00;12.57;;;11.80;99.90;;;;;;5055928;28;20479;-29
2023/11/21 11:26:18;;;;;;;17.40;10.60;;;11.80;99.90;;;;;;5058636;28;21052;-29
2023/11/21 11:28:55;;;;;;;19.20;11.65;;;11.80;99.90;;;;;;5059159;28;20565;-28
2023/11/21 11:31:38;;;;;;;20.40;11.10;;;11.80;99.90;;;;;;5040826;28;20204;-30
2023/11/21 11:34:26;;;;;;;21.50;12.30;;;11.80;99.90;;;;;;5056331;28;20485;-29
2023/11/21 11:37:03;;;;;;;19.03;12.03;;;11.80;99.90;;;;;;5043808;28;20883;-28
2023/11/21 11:39:43;;;;;;;17.93;12.40;;;11.80;99.90;;;;;;5045719;28;20550;-29
2023/11/21 11:42:17;;;;;;;20.73;12.17;;;11.70;99.90;;;;;;5041404;28;20496;-28
2023/11/21 11:44:46;;;;;;;21.40;12.23;;;11.70;99.90;;;;;;5058637;28;20428;-28
2023/11/21 11:47:32;;;;;;;18.97;11.90;;;11.70;99.90;;;;;;5039991;28;20444;-28
2023/11/21 11:50:12;;;;;;;19.43;12.40;;;11.70;99.90;;;;;;5019128;28;20435;-29
2023/11/21 11:52:48;;;;;;;22.50;12.00;;;11.70;99.90;;;;;;5034473;28;20455;-28
2023/11/21 11:55:19;;;;;;;17.73;11.65;;;11.70;99.90;;;;;;5038931;28;20511;-29
2023/11/21 11:58:11;;;;;;;16.57;11.37;;;11.70;99.90;;;;;;5058631;28;20202;-30
2023/11/21 12:01:06;;;;;;;21.13;13.43;;;11.80;99.90;;;;;;5063082;28;20458;-29
2023/11/21 12:03:33;;;;;;;23.67;12.90;;;11.80;99.90;;;;;;5043285;28;20547;-30
2023/11/21 12:06:00;;;;;;;20.65;12.25;;;11.80;99.90;;;;;;5035448;28;20430;-28
2023/11/21 12:08:31;;;;;;;23.40;12.97;;;11.80;99.90;;;;;;5040263;28;20185;-29
2023/11/21 12:10:58;;;;;;;22.50;13.13;;;11.80;99.90;;;;;;5039407;28;20858;-28
2023/11/21 12:13:24;;;;;;;19.93;13.07;;;11.80;99.90;;;;;;5057384;28;20440;-31
2023/11/21 12:15:54;;;;;;;22.13;12.37;;;11.80;99.90;;;;;;5057603;28;20437;-29
2023/11/21 12:18:21;;;;;;;20.93;13.23;;;11.80;99.90;;;;;;5057144;28;20439;-29
2023/11/21 12:20:51;;;;;;;26.10;13.73;;;11.80;99.90;;;;;;5054916;28;20475;-28
2023/11/21 12:23:20;;;;;;;27.60;14.13;;;11.80;99.90;;;;;;5056104;28;21323;-29
2023/11/21 12:25:46;;;;;;;28.60;13.60;;;11.80;99.90;;;;;;5057153;28;21216;-29
2023/11/21 12:28:13;;;;;;;25.60;13.87;;;11.80;99.90;;;;;;5039011;28;20451;-29
2023/11/21 12:30:39;;;;;;;22.80;12.70;;;11.80;99.90;;;;;;5033833;28;20799;-30
2023/11/21 12:33:08;;;;;;;23.00;13.33;;;11.80;99.90;;;;;;5056716;28;20430;-30
2023/11/21 12:35:35;;;;;;;22.70;13.83;;;11.80;99.90;;;;;;5053515;28;20512;-28
2023/11/21 12:38:02;;;;;;;18.33;12.40;;;11.80;99.90;;;;;;5057096;28;20442;-30
2023/11/21 12:40:29;;;;;;;21.80;13.17;;;11.90;99.90;;;;;;5037370;28;20478;-30
2023/11/21 12:42:59;;;;;;;24.23;14.20;;;11.90;99.90;;;;;;5056894;28;20450;-29
2023/11/21 12:45:27;;;;;;;22.60;14.70;;;11.90;99.90;;;;;;5037964;28;20536;-29
2023/11/21 12:48:07;;;;;;;28.23;14.57;;;11.90;99.90;;;;;;5049116;28;20184;-29